sensor_id;sensor_type;location;lat;lon;timestamp;P1;durP1;ratioP1;P2;durP2;ratioP2
50337;SDS011;46221;51.178;5.900;2022-09-01T00:00:39;2.40;;;1.00;;
50337;SDS011;46221;51.178;5.900;2022-09-01T00:03:07;3.65;;;1.40;;
50337;SDS011;46221;51.178;5.900;2022-09-01T00:05:36;2.42;;;1.10;;
50337;SDS011;46221;51.178;5.900;2022-09-01T00:08:03;2.25;;;1.10;;
50337;SDS011;46221;51.178;5.900;2022-09-01T00:10:30;2.45;;;1.20;;
50337;SDS011;46221;51.178;5.900;2022-09-01T00:12:56;2.70;;;1.20;;
50337;SDS011;46221;51.178;5.900;2022-09-01T00:15:23;1.75;;;1.10;;
50337;SDS011;46221;51.178;5.900;2022-09-01T00:17:49;2.83;;;1.02;;
50337;SDS011;46221;51.178;5.900;2022-09-01T00:20:16;2.00;;;0.98;;
50337;SDS011;46221;51.178;5.900;2022-09-01T00:22:45;3.13;;;1.20;;
50337;SDS011;46221;51.178;5.900;2022-09-01T00:25:12;2.80;;;1.20;;
50337;SDS011;46221;51.178;5.900;2022-09-01T00:27:38;1.80;;;0.85;;
50337;SDS011;46221;51.178;5.900;2022-09-01T00:30:05;2.33;;;1.05;;
50337;SDS011;46221;51.178;5.900;2022-09-01T00:32:32;2.63;;;1.50;;
50337;SDS011;46221;51.178;5.900;2022-09-01T00:34:58;2.80;;;1.17;;
50337;SDS011;46221;51.178;5.900;2022-09-01T00:37:24;2.65;;;1.17;;
50337;SDS011;46221;51.178;5.900;2022-09-01T00:39:51;3.30;;;1.20;;
50337;SDS011;46221;51.178;5.900;2022-09-01T00:42:17;2.53;;;1.17;;
50337;SDS011;46221;51.178;5.900;2022-09-01T00:44:43;1.67;;;1.00;;
50337;SDS011;46221;51.178;5.900;2022-09-01T00:47:11;2.38;;;1.10;;
50337;SDS011;46221;51.178;5.900;2022-09-01T00:49:40;3.30;;;1.15;;
50337;SDS011;46221;51.178;5.900;2022-09-01T00:52:29;2.53;;;1.08;;
50337;SDS011;46221;51.178;5.900;2022-09-01T00:57:20;2.20;;;1.10;;
50337;SDS011;46221;51.178;5.900;2022-09-01T00:59:49;2.08;;;1.10;;
50337;SDS011;46221;51.178;5.900;2022-09-01T01:02:17;2.42;;;1.33;;
50337;SDS011;46221;51.178;5.900;2022-09-01T01:04:43;3.55;;;1.20;;
50337;SDS011;46221;51.178;5.900;2022-09-01T01:07:11;3.08;;;1.20;;
50337;SDS011;46221;51.178;5.900;2022-09-01T01:09:40;2.45;;;1.20;;
50337;SDS011;46221;51.178;5.900;2022-09-01T01:12:08;2.95;;;1.10;;
50337;SDS011;46221;51.178;5.900;2022-09-01T01:14:38;3.15;;;1.25;;
50337;SDS011;46221;51.178;5.900;2022-09-01T01:17:10;2.53;;;1.30;;
50337;SDS011;46221;51.178;5.900;2022-09-01T01:19:50;3.75;;;1.25;;
50337;SDS011;46221;51.178;5.900;2022-09-01T01:25:31;4.70;;;1.20;;
50337;SDS011;46221;51.178;5.900;2022-09-01T01:30:34;2.95;;;1.20;;
50337;SDS011;46221;51.178;5.900;2022-09-01T01:33:02;3.58;;;1.75;;
50337;SDS011;46221;51.178;5.900;2022-09-01T01:35:29;4.43;;;1.27;;
50337;SDS011;46221;51.178;5.900;2022-09-01T01:37:57;2.70;;;1.40;;
50337;SDS011;46221;51.178;5.900;2022-09-01T01:40:23;3.80;;;1.38;;
50337;SDS011;46221;51.178;5.900;2022-09-01T01:42:51;2.40;;;1.20;;
50337;SDS011;46221;51.178;5.900;2022-09-01T01:45:18;2.78;;;1.20;;
50337;SDS011;46221;51.178;5.900;2022-09-01T01:47:46;2.15;;;1.15;;
50337;SDS011;46221;51.178;5.900;2022-09-01T01:50:26;2.35;;;1.10;;
50337;SDS011;46221;51.178;5.900;2022-09-01T01:52:54;2.90;;;1.20;;
50337;SDS011;46221;51.178;5.900;2022-09-01T01:55:25;2.42;;;1.17;;
50337;SDS011;46221;51.178;5.900;2022-09-01T01:57:54;3.20;;;1.38;;
50337;SDS011;46221;51.178;5.900;2022-09-01T02:00:22;1.90;;;1.23;;
50337;SDS011;46221;51.178;5.900;2022-09-01T02:02:55;2.97;;;1.20;;
50337;SDS011;46221;51.178;5.900;2022-09-01T02:05:23;3.40;;;1.13;;
50337;SDS011;46221;51.178;5.900;2022-09-01T02:07:51;2.08;;;1.10;;
50337;SDS011;46221;51.178;5.900;2022-09-01T02:10:24;2.65;;;1.17;;
50337;SDS011;46221;51.178;5.900;2022-09-01T02:12:51;2.65;;;1.20;;
50337;SDS011;46221;51.178;5.900;2022-09-01T02:15:18;2.53;;;1.10;;
50337;SDS011;46221;51.178;5.900;2022-09-01T02:17:44;3.85;;;1.52;;
50337;SDS011;46221;51.178;5.900;2022-09-01T02:20:12;2.25;;;1.30;;
50337;SDS011;46221;51.178;5.900;2022-09-01T02:22:41;2.42;;;1.30;;
50337;SDS011;46221;51.178;5.900;2022-09-01T02:25:09;2.92;;;1.27;;
50337;SDS011;46221;51.178;5.900;2022-09-01T02:27:36;3.60;;;1.45;;
50337;SDS011;46221;51.178;5.900;2022-09-01T02:30:07;2.08;;;1.15;;
50337;SDS011;46221;51.178;5.900;2022-09-01T02:32:35;2.72;;;1.13;;
50337;SDS011;46221;51.178;5.900;2022-09-01T02:35:03;3.95;;;1.30;;
50337;SDS011;46221;51.178;5.900;2022-09-01T02:37:32;3.47;;;1.10;;
50337;SDS011;46221;51.178;5.900;2022-09-01T02:39:59;2.25;;;1.08;;
50337;SDS011;46221;51.178;5.900;2022-09-01T02:42:25;2.80;;;1.30;;
50337;SDS011;46221;51.178;5.900;2022-09-01T02:44:55;3.63;;;1.10;;
50337;SDS011;46221;51.178;5.900;2022-09-01T02:47:22;2.53;;;1.08;;
50337;SDS011;46221;51.178;5.900;2022-09-01T02:49:49;1.63;;;0.93;;
50337;SDS011;46221;51.178;5.900;2022-09-01T02:52:16;2.58;;;1.10;;
50337;SDS011;46221;51.178;5.900;2022-09-01T02:54:43;1.98;;;1.00;;
50337;SDS011;46221;51.178;5.900;2022-09-01T02:57:11;2.58;;;1.20;;
50337;SDS011;46221;51.178;5.900;2022-09-01T02:59:37;2.22;;;1.00;;
50337;SDS011;46221;51.178;5.900;2022-09-01T03:02:09;3.15;;;1.63;;
50337;SDS011;46221;51.178;5.900;2022-09-01T03:04:36;1.85;;;1.13;;
50337;SDS011;46221;51.178;5.900;2022-09-01T03:07:03;1.83;;;1.00;;
50337;SDS011;46221;51.178;5.900;2022-09-01T03:09:30;2.38;;;1.23;;
50337;SDS011;46221;51.178;5.900;2022-09-01T03:11:58;2.10;;;1.10;;
50337;SDS011;46221;51.178;5.900;2022-09-01T03:14:24;2.17;;;1.30;;
50337;SDS011;46221;51.178;5.900;2022-09-01T03:16:51;3.35;;;1.10;;
50337;SDS011;46221;51.178;5.900;2022-09-01T03:19:18;2.65;;;1.20;;
50337;SDS011;46221;51.178;5.900;2022-09-01T03:21:44;2.10;;;0.95;;
50337;SDS011;46221;51.178;5.900;2022-09-01T03:24:13;2.70;;;1.23;;
50337;SDS011;46221;51.178;5.900;2022-09-01T03:26:40;2.65;;;1.20;;
50337;SDS011;46221;51.178;5.900;2022-09-01T03:29:07;1.80;;;0.93;;
50337;SDS011;46221;51.178;5.900;2022-09-01T03:31:34;2.40;;;1.05;;
50337;SDS011;46221;51.178;5.900;2022-09-01T03:34:00;2.85;;;1.00;;
50337;SDS011;46221;51.178;5.900;2022-09-01T03:36:28;2.38;;;1.08;;
50337;SDS011;46221;51.178;5.900;2022-09-01T03:38:56;2.13;;;1.13;;
50337;SDS011;46221;51.178;5.900;2022-09-01T03:41:23;2.03;;;1.08;;
50337;SDS011;46221;51.178;5.900;2022-09-01T03:43:50;2.30;;;1.00;;
50337;SDS011;46221;51.178;5.900;2022-09-01T03:46:20;2.40;;;1.10;;
50337;SDS011;46221;51.178;5.900;2022-09-01T03:48:48;3.03;;;0.95;;
50337;SDS011;46221;51.178;5.900;2022-09-01T03:51:16;2.83;;;1.30;;
50337;SDS011;46221;51.178;5.900;2022-09-01T03:53:42;3.60;;;1.20;;
50337;SDS011;46221;51.178;5.900;2022-09-01T03:56:10;1.73;;;1.08;;
50337;SDS011;46221;51.178;5.900;2022-09-01T03:58:36;2.75;;;1.35;;
50337;SDS011;46221;51.178;5.900;2022-09-01T04:01:03;2.47;;;1.23;;
50337;SDS011;46221;51.178;5.900;2022-09-01T04:03:33;3.42;;;1.17;;
50337;SDS011;46221;51.178;5.900;2022-09-01T04:06:01;2.47;;;1.30;;
50337;SDS011;46221;51.178;5.900;2022-09-01T04:08:28;2.97;;;1.08;;
50337;SDS011;46221;51.178;5.900;2022-09-01T04:10:59;3.58;;;1.27;;
50337;SDS011;46221;51.178;5.900;2022-09-01T04:13:30;3.13;;;1.25;;
50337;SDS011;46221;51.178;5.900;2022-09-01T04:15:57;2.20;;;1.30;;
50337;SDS011;46221;51.178;5.900;2022-09-01T04:18:23;2.40;;;1.30;;
50337;SDS011;46221;51.178;5.900;2022-09-01T04:20:57;2.08;;;1.10;;
50337;SDS011;46221;51.178;5.900;2022-09-01T04:23:25;2.78;;;1.10;;
50337;SDS011;46221;51.178;5.900;2022-09-01T04:25:53;2.13;;;1.10;;
50337;SDS011;46221;51.178;5.900;2022-09-01T04:28:22;1.80;;;0.98;;
50337;SDS011;46221;51.178;5.900;2022-09-01T04:30:50;3.42;;;1.20;;
50337;SDS011;46221;51.178;5.900;2022-09-01T04:33:21;2.42;;;1.13;;
50337;SDS011;46221;51.178;5.900;2022-09-01T04:35:49;1.95;;;1.08;;
50337;SDS011;46221;51.178;5.900;2022-09-01T04:38:22;2.30;;;1.25;;
50337;SDS011;46221;51.178;5.900;2022-09-01T04:40:50;3.30;;;1.50;;
50337;SDS011;46221;51.178;5.900;2022-09-01T04:43:17;2.60;;;1.23;;
50337;SDS011;46221;51.178;5.900;2022-09-01T04:45:44;2.90;;;1.38;;
50337;SDS011;46221;51.178;5.900;2022-09-01T04:48:10;2.58;;;1.17;;
50337;SDS011;46221;51.178;5.900;2022-09-01T04:50:38;3.08;;;1.27;;
50337;SDS011;46221;51.178;5.900;2022-09-01T04:53:06;2.22;;;1.30;;
50337;SDS011;46221;51.178;5.900;2022-09-01T04:55:32;2.75;;;1.27;;
50337;SDS011;46221;51.178;5.900;2022-09-01T04:57:59;3.00;;;1.27;;
50337;SDS011;46221;51.178;5.900;2022-09-01T05:00:26;4.57;;;1.40;;
50337;SDS011;46221;51.178;5.900;2022-09-01T05:02:54;2.42;;;1.08;;
50337;SDS011;46221;51.178;5.900;2022-09-01T05:05:21;2.65;;;1.10;;
50337;SDS011;46221;51.178;5.900;2022-09-01T05:07:48;2.30;;;1.17;;
50337;SDS011;46221;51.178;5.900;2022-09-01T05:10:19;3.17;;;1.23;;
50337;SDS011;46221;51.178;5.900;2022-09-01T05:12:46;2.53;;;1.27;;
50337;SDS011;46221;51.178;5.900;2022-09-01T05:15:13;2.75;;;1.40;;
50337;SDS011;46221;51.178;5.900;2022-09-01T05:17:40;3.10;;;1.60;;
50337;SDS011;46221;51.178;5.900;2022-09-01T05:20:06;2.65;;;1.38;;
50337;SDS011;46221;51.178;5.900;2022-09-01T05:22:33;3.25;;;1.45;;
50337;SDS011;46221;51.178;5.900;2022-09-01T05:25:00;2.17;;;1.40;;
50337;SDS011;46221;51.178;5.900;2022-09-01T05:27:45;2.05;;;1.17;;
50337;SDS011;46221;51.178;5.900;2022-09-01T05:30:16;3.65;;;1.52;;
50337;SDS011;46221;51.178;5.900;2022-09-01T05:32:43;3.53;;;1.70;;
50337;SDS011;46221;51.178;5.900;2022-09-01T05:35:12;2.75;;;1.65;;
50337;SDS011;46221;51.178;5.900;2022-09-01T05:37:38;3.45;;;1.75;;
50337;SDS011;46221;51.178;5.900;2022-09-01T05:40:05;4.28;;;1.65;;
50337;SDS011;46221;51.178;5.900;2022-09-01T05:42:32;3.70;;;1.40;;
50337;SDS011;46221;51.178;5.900;2022-09-01T05:44:59;3.58;;;1.52;;
50337;SDS011;46221;51.178;5.900;2022-09-01T05:47:27;2.78;;;1.48;;
50337;SDS011;46221;51.178;5.900;2022-09-01T05:49:53;2.92;;;1.30;;
50337;SDS011;46221;51.178;5.900;2022-09-01T05:52:21;4.00;;;1.80;;
50337;SDS011;46221;51.178;5.900;2022-09-01T05:54:50;2.50;;;1.35;;
50337;SDS011;46221;51.178;5.900;2022-09-01T05:57:17;4.05;;;1.65;;
50337;SDS011;46221;51.178;5.900;2022-09-01T06:00:00;7.07;;;1.60;;
50337;SDS011;46221;51.178;5.900;2022-09-01T06:02:27;4.45;;;1.55;;
50337;SDS011;46221;51.178;5.900;2022-09-01T06:04:53;3.67;;;1.60;;
50337;SDS011;46221;51.178;5.900;2022-09-01T06:07:22;2.70;;;1.30;;
50337;SDS011;46221;51.178;5.900;2022-09-01T06:09:51;2.95;;;1.40;;
50337;SDS011;46221;51.178;5.900;2022-09-01T06:12:18;4.30;;;1.85;;
50337;SDS011;46221;51.178;5.900;2022-09-01T06:14:48;4.57;;;1.45;;
50337;SDS011;46221;51.178;5.900;2022-09-01T06:17:15;3.58;;;1.30;;
50337;SDS011;46221;51.178;5.900;2022-09-01T06:19:43;3.55;;;1.73;;
50337;SDS011;46221;51.178;5.900;2022-09-01T06:22:10;2.65;;;1.27;;
50337;SDS011;46221;51.178;5.900;2022-09-01T06:24:37;6.72;;;1.88;;
50337;SDS011;46221;51.178;5.900;2022-09-01T06:27:07;11.93;;;2.72;;
50337;SDS011;46221;51.178;5.900;2022-09-01T06:29:35;14.60;;;2.38;;
50337;SDS011;46221;51.178;5.900;2022-09-01T06:32:05;9.65;;;2.22;;
50337;SDS011;46221;51.178;5.900;2022-09-01T06:34:37;23.10;;;3.90;;
50337;SDS011;46221;51.178;5.900;2022-09-01T06:37:03;67.95;;;7.90;;
50337;SDS011;46221;51.178;5.900;2022-09-01T06:39:30;58.55;;;6.90;;
50337;SDS011;46221;51.178;5.900;2022-09-01T06:41:56;54.15;;;6.43;;
50337;SDS011;46221;51.178;5.900;2022-09-01T06:44:24;61.63;;;8.30;;
50337;SDS011;46221;51.178;5.900;2022-09-01T06:46:50;54.55;;;7.85;;
50337;SDS011;46221;51.178;5.900;2022-09-01T06:49:17;31.40;;;6.10;;
50337;SDS011;46221;51.178;5.900;2022-09-01T06:51:44;30.52;;;5.18;;
50337;SDS011;46221;51.178;5.900;2022-09-01T06:54:14;32.47;;;4.75;;
50337;SDS011;46221;51.178;5.900;2022-09-01T06:56:41;29.55;;;3.97;;
50337;SDS011;46221;51.178;5.900;2022-09-01T06:59:16;27.52;;;5.25;;
50337;SDS011;46221;51.178;5.900;2022-09-01T07:01:43;21.70;;;3.47;;
50337;SDS011;46221;51.178;5.900;2022-09-01T07:04:10;21.80;;;3.55;;
50337;SDS011;46221;51.178;5.900;2022-09-01T07:06:39;16.88;;;3.60;;
50337;SDS011;46221;51.178;5.900;2022-09-01T07:09:25;24.58;;;3.30;;
50337;SDS011;46221;51.178;5.900;2022-09-01T07:12:12;20.67;;;3.72;;
50337;SDS011;46221;51.178;5.900;2022-09-01T07:14:54;17.65;;;3.15;;
50337;SDS011;46221;51.178;5.900;2022-09-01T07:17:45;16.60;;;3.15;;
50337;SDS011;46221;51.178;5.900;2022-09-01T07:20:14;14.40;;;3.40;;
50337;SDS011;46221;51.178;5.900;2022-09-01T07:22:49;17.35;;;4.00;;
50337;SDS011;46221;51.178;5.900;2022-09-01T07:25:33;16.05;;;3.83;;
50337;SDS011;46221;51.178;5.900;2022-09-01T07:28:21;15.82;;;3.38;;
50337;SDS011;46221;51.178;5.900;2022-09-01T07:31:16;12.52;;;3.33;;
50337;SDS011;46221;51.178;5.900;2022-09-01T07:34:06;13.48;;;3.42;;
50337;SDS011;46221;51.178;5.900;2022-09-01T07:36:57;10.68;;;2.63;;
50337;SDS011;46221;51.178;5.900;2022-09-01T07:39:45;9.88;;;2.40;;
50337;SDS011;46221;51.178;5.900;2022-09-01T07:42:31;13.60;;;2.97;;
50337;SDS011;46221;51.178;5.900;2022-09-01T07:45:17;13.25;;;2.25;;
50337;SDS011;46221;51.178;5.900;2022-09-01T07:47:53;12.43;;;2.58;;
50337;SDS011;46221;51.178;5.900;2022-09-01T07:50:22;10.70;;;2.33;;
50337;SDS011;46221;51.178;5.900;2022-09-01T07:53:05;11.80;;;2.88;;
50337;SDS011;46221;51.178;5.900;2022-09-01T07:55:34;6.97;;;2.17;;
50337;SDS011;46221;51.178;5.900;2022-09-01T07:58:00;10.00;;;2.65;;
50337;SDS011;46221;51.178;5.900;2022-09-01T08:00:26;9.48;;;2.75;;
50337;SDS011;46221;51.178;5.900;2022-09-01T08:02:56;8.27;;;2.40;;
50337;SDS011;46221;51.178;5.900;2022-09-01T08:05:22;7.35;;;2.10;;
50337;SDS011;46221;51.178;5.900;2022-09-01T08:07:52;8.20;;;2.03;;
50337;SDS011;46221;51.178;5.900;2022-09-01T08:10:19;6.63;;;2.00;;
50337;SDS011;46221;51.178;5.900;2022-09-01T08:12:45;4.85;;;1.80;;
50337;SDS011;46221;51.178;5.900;2022-09-01T08:15:21;8.40;;;1.98;;
50337;SDS011;46221;51.178;5.900;2022-09-01T08:18:07;3.70;;;1.65;;
50337;SDS011;46221;51.178;5.900;2022-09-01T08:20:33;4.47;;;1.70;;
50337;SDS011;46221;51.178;5.900;2022-09-01T08:23:03;4.97;;;2.17;;
50337;SDS011;46221;51.178;5.900;2022-09-01T08:25:29;5.13;;;1.60;;
50337;SDS011;46221;51.178;5.900;2022-09-01T08:27:56;6.60;;;2.42;;
50337;SDS011;46221;51.178;5.900;2022-09-01T08:30:25;4.22;;;1.90;;
50337;SDS011;46221;51.178;5.900;2022-09-01T08:32:52;5.53;;;2.45;;
50337;SDS011;46221;51.178;5.900;2022-09-01T08:35:19;4.55;;;2.33;;
50337;SDS011;46221;51.178;5.900;2022-09-01T08:37:45;3.75;;;1.60;;
50337;SDS011;46221;51.178;5.900;2022-09-01T08:40:12;6.03;;;2.25;;
50337;SDS011;46221;51.178;5.900;2022-09-01T08:45:49;4.97;;;1.90;;
50337;SDS011;46221;51.178;5.900;2022-09-01T08:51:09;3.75;;;1.50;;
50337;SDS011;46221;51.178;5.900;2022-09-01T08:53:46;5.13;;;1.75;;
50337;SDS011;46221;51.178;5.900;2022-09-01T08:56:14;4.03;;;1.88;;
50337;SDS011;46221;51.178;5.900;2022-09-01T08:58:43;4.53;;;1.42;;
50337;SDS011;46221;51.178;5.900;2022-09-01T09:01:21;4.85;;;1.98;;
50337;SDS011;46221;51.178;5.900;2022-09-01T09:06:31;4.00;;;1.73;;
50337;SDS011;46221;51.178;5.900;2022-09-01T09:09:05;4.65;;;1.92;;
50337;SDS011;46221;51.178;5.900;2022-09-01T09:14:10;4.47;;;1.50;;
50337;SDS011;46221;51.178;5.900;2022-09-01T09:16:41;3.63;;;1.77;;
50337;SDS011;46221;51.178;5.900;2022-09-01T09:21:41;3.22;;;1.52;;
50337;SDS011;46221;51.178;5.900;2022-09-01T09:24:09;6.63;;;1.98;;
50337;SDS011;46221;51.178;5.900;2022-09-01T09:26:47;3.67;;;1.42;;
50337;SDS011;46221;51.178;5.900;2022-09-01T09:29:14;4.22;;;2.00;;
50337;SDS011;46221;51.178;5.900;2022-09-01T09:31:43;4.07;;;1.67;;
50337;SDS011;46221;51.178;5.900;2022-09-01T09:34:37;3.78;;;1.50;;
50337;SDS011;46221;51.178;5.900;2022-09-01T09:39:43;5.25;;;2.08;;
50337;SDS011;46221;51.178;5.900;2022-09-01T09:42:11;4.20;;;1.60;;
50337;SDS011;46221;51.178;5.900;2022-09-01T09:44:42;3.10;;;1.45;;
50337;SDS011;46221;51.178;5.900;2022-09-01T09:47:09;2.85;;;1.40;;
50337;SDS011;46221;51.178;5.900;2022-09-01T09:52:41;2.85;;;1.40;;
50337;SDS011;46221;51.178;5.900;2022-09-01T09:55:20;4.10;;;1.67;;
50337;SDS011;46221;51.178;5.900;2022-09-01T09:57:48;4.18;;;1.42;;
50337;SDS011;46221;51.178;5.900;2022-09-01T10:00:21;12.25;;;2.20;;
50337;SDS011;46221;51.178;5.900;2022-09-01T10:02:52;15.25;;;3.30;;
50337;SDS011;46221;51.178;5.900;2022-09-01T10:05:24;19.38;;;2.92;;
50337;SDS011;46221;51.178;5.900;2022-09-01T10:07:51;11.30;;;2.80;;
50337;SDS011;46221;51.178;5.900;2022-09-01T10:10:36;13.70;;;3.58;;
50337;SDS011;46221;51.178;5.900;2022-09-01T10:13:14;12.75;;;2.63;;
50337;SDS011;46221;51.178;5.900;2022-09-01T10:15:42;9.93;;;2.40;;
50337;SDS011;46221;51.178;5.900;2022-09-01T10:18:17;12.60;;;2.47;;
50337;SDS011;46221;51.178;5.900;2022-09-01T10:20:54;13.65;;;2.00;;
50337;SDS011;46221;51.178;5.900;2022-09-01T10:23:21;15.65;;;2.90;;
50337;SDS011;46221;51.178;5.900;2022-09-01T10:25:54;9.60;;;3.00;;
50337;SDS011;46221;51.178;5.900;2022-09-01T10:28:23;11.63;;;2.08;;
50337;SDS011;46221;51.178;5.900;2022-09-01T10:30:51;13.55;;;2.35;;
50337;SDS011;46221;51.178;5.900;2022-09-01T10:33:19;9.98;;;2.28;;
50337;SDS011;46221;51.178;5.900;2022-09-01T10:35:48;7.03;;;2.05;;
50337;SDS011;46221;51.178;5.900;2022-09-01T10:38:16;10.75;;;2.70;;
50337;SDS011;46221;51.178;5.900;2022-09-01T10:40:45;4.68;;;1.40;;
50337;SDS011;46221;51.178;5.900;2022-09-01T10:46:28;10.68;;;2.25;;
50337;SDS011;46221;51.178;5.900;2022-09-01T10:51:55;6.05;;;1.70;;
50337;SDS011;46221;51.178;5.900;2022-09-01T10:59:53;8.90;;;1.80;;
50337;SDS011;46221;51.178;5.900;2022-09-01T11:02:23;5.30;;;1.70;;
50337;SDS011;46221;51.178;5.900;2022-09-01T11:07:30;7.97;;;1.70;;
50337;SDS011;46221;51.178;5.900;2022-09-01T11:10:26;7.07;;;1.60;;
50337;SDS011;46221;51.178;5.900;2022-09-01T11:15:40;6.30;;;1.88;;
50337;SDS011;46221;51.178;5.900;2022-09-01T11:18:14;4.55;;;1.30;;
50337;SDS011;46221;51.178;5.900;2022-09-01T11:20:44;5.55;;;1.80;;
50337;SDS011;46221;51.178;5.900;2022-09-01T11:23:32;5.78;;;1.70;;
50337;SDS011;46221;51.178;5.900;2022-09-01T11:28:49;4.28;;;1.40;;
50337;SDS011;46221;51.178;5.900;2022-09-01T11:31:25;5.85;;;1.42;;
50337;SDS011;46221;51.178;5.900;2022-09-01T11:34:02;4.10;;;1.92;;
50337;SDS011;46221;51.178;5.900;2022-09-01T11:36:33;5.50;;;1.50;;
50337;SDS011;46221;51.178;5.900;2022-09-01T11:41:32;4.70;;;1.50;;
50337;SDS011;46221;51.178;5.900;2022-09-01T11:44:00;3.55;;;1.40;;
50337;SDS011;46221;51.178;5.900;2022-09-01T11:46:29;4.10;;;1.30;;
50337;SDS011;46221;51.178;5.900;2022-09-01T11:48:58;4.22;;;1.63;;
50337;SDS011;46221;51.178;5.900;2022-09-01T11:51:25;6.97;;;1.80;;
50337;SDS011;46221;51.178;5.900;2022-09-01T11:53:57;3.78;;;1.38;;
50337;SDS011;46221;51.178;5.900;2022-09-01T11:56:25;4.05;;;1.33;;
50337;SDS011;46221;51.178;5.900;2022-09-01T11:58:52;4.03;;;1.30;;
50337;SDS011;46221;51.178;5.900;2022-09-01T12:03:49;2.95;;;1.17;;
50337;SDS011;46221;51.178;5.900;2022-09-01T12:06:23;3.40;;;1.75;;
50337;SDS011;46221;51.178;5.900;2022-09-01T12:08:55;4.25;;;1.58;;
50337;SDS011;46221;51.178;5.900;2022-09-01T12:11:29;2.72;;;1.00;;
50337;SDS011;46221;51.178;5.900;2022-09-01T12:16:22;3.30;;;1.15;;
50337;SDS011;46221;51.178;5.900;2022-09-01T12:18:50;4.00;;;1.23;;
50337;SDS011;46221;51.178;5.900;2022-09-01T12:21:21;4.07;;;1.70;;
50337;SDS011;46221;51.178;5.900;2022-09-01T12:23:51;2.92;;;0.90;;
50337;SDS011;46221;51.178;5.900;2022-09-01T12:26:27;3.13;;;1.20;;
50337;SDS011;46221;51.178;5.900;2022-09-01T12:28:54;4.50;;;1.63;;
50337;SDS011;46221;51.178;5.900;2022-09-01T12:31:22;2.40;;;1.00;;
50337;SDS011;46221;51.178;5.900;2022-09-01T12:33:50;3.00;;;1.42;;
50337;SDS011;46221;51.178;5.900;2022-09-01T12:38:46;1.50;;;0.77;;
50337;SDS011;46221;51.178;5.900;2022-09-01T12:41:23;2.58;;;1.10;;
50337;SDS011;46221;51.178;5.900;2022-09-01T12:43:50;3.90;;;1.20;;
50337;SDS011;46221;51.178;5.900;2022-09-01T12:46:39;2.83;;;1.00;;
50337;SDS011;46221;51.178;5.900;2022-09-01T12:49:17;2.92;;;1.38;;
50337;SDS011;46221;51.178;5.900;2022-09-01T12:51:45;3.13;;;0.90;;
50337;SDS011;46221;51.178;5.900;2022-09-01T12:54:14;3.83;;;0.85;;
50337;SDS011;46221;51.178;5.900;2022-09-01T12:56:45;1.80;;;1.20;;
50337;SDS011;46221;51.178;5.900;2022-09-01T12:59:13;3.15;;;1.27;;
50337;SDS011;46221;51.178;5.900;2022-09-01T13:04:46;3.08;;;1.08;;
50337;SDS011;46221;51.178;5.900;2022-09-01T13:07:14;3.63;;;1.27;;
50337;SDS011;46221;51.178;5.900;2022-09-01T13:09:41;3.45;;;1.35;;
50337;SDS011;46221;51.178;5.900;2022-09-01T13:12:18;3.13;;;1.17;;
50337;SDS011;46221;51.178;5.900;2022-09-01T13:14:45;2.42;;;1.08;;
50337;SDS011;46221;51.178;5.900;2022-09-01T13:17:11;2.55;;;1.00;;
50337;SDS011;46221;51.178;5.900;2022-09-01T13:19:39;1.55;;;0.82;;
50337;SDS011;46221;51.178;5.900;2022-09-01T13:22:06;3.20;;;1.10;;
50337;SDS011;46221;51.178;5.900;2022-09-01T13:24:32;1.95;;;0.82;;
50337;SDS011;46221;51.178;5.900;2022-09-01T13:26:59;2.05;;;1.00;;
50337;SDS011;46221;51.178;5.900;2022-09-01T13:29:46;2.08;;;1.00;;
50337;SDS011;46221;51.178;5.900;2022-09-01T13:32:13;2.25;;;0.90;;
50337;SDS011;46221;51.178;5.900;2022-09-01T13:34:44;3.05;;;1.20;;
50337;SDS011;46221;51.178;5.900;2022-09-01T13:37:11;1.63;;;0.85;;
50337;SDS011;46221;51.178;5.900;2022-09-01T13:39:37;2.35;;;1.05;;
50337;SDS011;46221;51.178;5.900;2022-09-01T13:42:03;2.83;;;1.10;;
50337;SDS011;46221;51.178;5.900;2022-09-01T13:44:30;3.83;;;0.90;;
50337;SDS011;46221;51.178;5.900;2022-09-01T13:46:56;2.40;;;1.02;;
50337;SDS011;46221;51.178;5.900;2022-09-01T13:49:25;2.30;;;0.90;;
50337;SDS011;46221;51.178;5.900;2022-09-01T13:52:12;1.77;;;0.75;;
50337;SDS011;46221;51.178;5.900;2022-09-01T13:54:38;3.10;;;1.30;;
50337;SDS011;46221;51.178;5.900;2022-09-01T13:57:04;2.58;;;1.10;;
50337;SDS011;46221;51.178;5.900;2022-09-01T13:59:31;2.13;;;0.80;;
50337;SDS011;46221;51.178;5.900;2022-09-01T14:01:58;1.58;;;0.80;;
50337;SDS011;46221;51.178;5.900;2022-09-01T14:04:26;2.75;;;0.90;;
50337;SDS011;46221;51.178;5.900;2022-09-01T14:06:53;1.63;;;0.85;;
50337;SDS011;46221;51.178;5.900;2022-09-01T14:09:20;2.33;;;0.82;;
50337;SDS011;46221;51.178;5.900;2022-09-01T14:11:46;1.13;;;0.77;;
50337;SDS011;46221;51.178;5.900;2022-09-01T14:14:12;1.92;;;0.77;;
50337;SDS011;46221;51.178;5.900;2022-09-01T14:16:39;3.22;;;1.20;;
50337;SDS011;46221;51.178;5.900;2022-09-01T14:19:05;2.35;;;0.85;;
50337;SDS011;46221;51.178;5.900;2022-09-01T14:21:32;2.80;;;1.10;;
50337;SDS011;46221;51.178;5.900;2022-09-01T14:23:58;1.55;;;0.73;;
50337;SDS011;46221;51.178;5.900;2022-09-01T14:26:25;2.20;;;1.00;;
50337;SDS011;46221;51.178;5.900;2022-09-01T14:28:53;2.08;;;1.10;;
50337;SDS011;46221;51.178;5.900;2022-09-01T14:31:20;2.78;;;0.70;;
50337;SDS011;46221;51.178;5.900;2022-09-01T14:33:46;1.92;;;0.73;;
50337;SDS011;46221;51.178;5.900;2022-09-01T14:36:21;1.80;;;0.88;;
50337;SDS011;46221;51.178;5.900;2022-09-01T14:38:49;1.17;;;0.80;;
50337;SDS011;46221;51.178;5.900;2022-09-01T14:41:15;2.58;;;0.77;;
50337;SDS011;46221;51.178;5.900;2022-09-01T14:43:42;1.20;;;0.80;;
50337;SDS011;46221;51.178;5.900;2022-09-01T14:46:11;1.42;;;0.80;;
50337;SDS011;46221;51.178;5.900;2022-09-01T14:48:38;2.08;;;0.88;;
50337;SDS011;46221;51.178;5.900;2022-09-01T14:51:06;2.25;;;0.88;;
50337;SDS011;46221;51.178;5.900;2022-09-01T14:53:32;1.60;;;0.60;;
50337;SDS011;46221;51.178;5.900;2022-09-01T14:55:59;2.15;;;0.75;;
50337;SDS011;46221;51.178;5.900;2022-09-01T14:58:26;2.88;;;0.70;;
50337;SDS011;46221;51.178;5.900;2022-09-01T15:00:53;1.48;;;0.63;;
50337;SDS011;46221;51.178;5.900;2022-09-01T15:03:32;2.25;;;0.90;;
50337;SDS011;46221;51.178;5.900;2022-09-01T15:05:59;1.70;;;0.90;;
50337;SDS011;46221;51.178;5.900;2022-09-01T15:08:25;1.92;;;0.85;;
50337;SDS011;46221;51.178;5.900;2022-09-01T15:10:51;1.75;;;0.80;;
50337;SDS011;46221;51.178;5.900;2022-09-01T15:13:18;1.35;;;0.70;;
50337;SDS011;46221;51.178;5.900;2022-09-01T15:15:44;1.75;;;0.75;;
50337;SDS011;46221;51.178;5.900;2022-09-01T15:18:10;1.65;;;0.80;;
50337;SDS011;46221;51.178;5.900;2022-09-01T15:20:38;3.17;;;1.00;;
50337;SDS011;46221;51.178;5.900;2022-09-01T15:23:18;1.58;;;0.70;;
50337;SDS011;46221;51.178;5.900;2022-09-01T15:25:45;1.92;;;0.88;;
50337;SDS011;46221;51.178;5.900;2022-09-01T15:28:11;1.17;;;0.70;;
50337;SDS011;46221;51.178;5.900;2022-09-01T15:30:38;1.77;;;0.90;;
50337;SDS011;46221;51.178;5.900;2022-09-01T15:33:06;1.75;;;0.90;;
50337;SDS011;46221;51.178;5.900;2022-09-01T15:35:38;2.97;;;1.00;;
50337;SDS011;46221;51.178;5.900;2022-09-01T15:38:04;1.63;;;0.70;;
50337;SDS011;46221;51.178;5.900;2022-09-01T15:40:32;1.15;;;0.70;;
50337;SDS011;46221;51.178;5.900;2022-09-01T15:42:59;1.10;;;0.70;;
50337;SDS011;46221;51.178;5.900;2022-09-01T15:45:26;1.95;;;0.93;;
50337;SDS011;46221;51.178;5.900;2022-09-01T15:47:53;1.85;;;0.70;;
50337;SDS011;46221;51.178;5.900;2022-09-01T15:50:21;1.88;;;0.90;;
50337;SDS011;46221;51.178;5.900;2022-09-01T15:52:53;3.13;;;1.38;;
50337;SDS011;46221;51.178;5.900;2022-09-01T15:55:22;1.80;;;0.82;;
50337;SDS011;46221;51.178;5.900;2022-09-01T15:57:49;1.90;;;0.85;;
50337;SDS011;46221;51.178;5.900;2022-09-01T16:00:16;1.60;;;0.90;;